createdAt,value
2018-11-02T00:01:35.989Z,49.22
2018-11-02T00:04:04.423Z,48.77
2018-11-02T00:06:33.965Z,49.29
2018-11-02T00:09:02.403Z,49.50
2018-11-02T00:11:30.696Z,49.59
2018-11-02T00:13:59.052Z,49.97
2018-11-02T00:16:27.489Z,49.59
2018-11-02T00:18:55.823Z,49.16
2018-11-02T00:21:24.189Z,48.88
2018-11-02T00:23:52.693Z,48.53
2018-11-02T00:26:20.987Z,48.96
2018-11-02T00:28:49.353Z,49.21
2018-11-02T00:31:17.684Z,48.86
2018-11-02T00:33:45.994Z,48.96
2018-11-02T00:36:14.316Z,48.33
2018-11-02T00:38:42.708Z,48.78
2018-11-02T00:41:11.059Z,48.63
2018-11-02T00:43:39.644Z,48.82
2018-11-02T00:46:08.419Z,48.50
2018-11-02T00:48:36.727Z,49.14
2018-11-02T00:51:05.357Z,48.98
2018-11-02T00:53:33.683Z,48.97
2018-11-02T00:56:02.039Z,50.94
2018-11-02T00:58:30.395Z,50.54
2018-11-02T01:00:58.765Z,51.03
2018-11-02T01:03:27.149Z,50.48
2018-11-02T01:05:55.508Z,49.87
2018-11-02T01:08:23.933Z,49.65
2018-11-02T01:10:52.270Z,49.23
2018-11-02T01:13:20.615Z,48.75
2018-11-02T01:15:49.036Z,48.58
2018-11-02T01:18:17.359Z,48.85
2018-11-02T01:20:45.736Z,47.85
2018-11-02T01:23:14.157Z,49.12
2018-11-02T01:25:42.499Z,48.18
2018-11-02T01:28:10.914Z,48.05
2018-11-02T01:30:39.266Z,48.64
2018-11-02T01:33:07.707Z,50.18
2018-11-02T01:35:36.200Z,50.95
2018-11-02T01:38:04.741Z,49.27
2018-11-02T01:40:33.134Z,49.07
2018-11-02T01:43:01.548Z,48.63
2018-11-02T01:45:29.867Z,49.40
2018-11-02T01:47:58.194Z,48.64
2018-11-02T01:50:26.570Z,49.85
2018-11-02T01:52:54.881Z,49.61
2018-11-02T01:55:23.219Z,50.56
2018-11-02T01:57:51.558Z,50.80
2018-11-02T02:00:19.932Z,50.35
2018-11-02T02:02:48.244Z,49.31
2018-11-02T02:05:16.634Z,49.14
2018-11-02T02:07:45.071Z,49.22
2018-11-02T02:10:13.468Z,49.54
2018-11-02T02:12:41.756Z,49.87
2018-11-02T02:15:10.807Z,49.59
2018-11-02T02:17:39.317Z,48.95
2018-11-02T02:20:08.399Z,49.26
2018-11-02T02:22:36.702Z,49.51
2018-11-02T02:25:05.621Z,50.02
2018-11-02T02:27:36.765Z,50.30
2018-11-02T02:30:07.361Z,50.42
2018-11-02T02:32:35.802Z,50.44
2018-11-02T02:35:04.466Z,50.00
2018-11-02T02:37:32.798Z,49.11
2018-11-02T02:40:01.086Z,49.83
2018-11-02T02:42:29.420Z,48.70
2018-11-02T02:44:57.742Z,49.37
2018-11-02T02:47:26.221Z,49.30
2018-11-02T02:49:54.518Z,49.20
2018-11-02T02:52:22.800Z,50.67
2018-11-02T02:54:51.223Z,50.39
2018-11-02T02:57:19.572Z,50.19
2018-11-02T02:59:47.917Z,50.02
2018-11-02T03:02:16.334Z,50.24
2018-11-02T03:04:44.843Z,50.14
2018-11-02T03:07:13.163Z,51.79
2018-11-02T03:09:41.560Z,51.40
2018-11-02T03:12:09.882Z,52.01
2018-11-02T03:14:38.281Z,52.19
2018-11-02T03:17:06.641Z,50.72
2018-11-02T03:19:34.986Z,50.58
2018-11-02T03:22:03.279Z,50.29
2018-11-02T03:24:31.668Z,51.52
2018-11-02T03:26:59.970Z,50.90
2018-11-02T03:29:28.269Z,50.57
2018-11-02T03:31:56.648Z,50.04
2018-11-02T03:34:24.994Z,49.00
2018-11-02T03:36:53.310Z,49.14
2018-11-02T03:39:21.698Z,48.49
2018-11-02T03:41:50.074Z,49.54
2018-11-02T03:44:18.334Z,49.58
2018-11-02T03:46:46.779Z,50.52
2018-11-02T03:49:15.204Z,49.92
2018-11-02T03:51:43.540Z,49.24
2018-11-02T03:54:11.943Z,48.57
2018-11-02T03:56:40.351Z,49.67
2018-11-02T03:59:08.650Z,49.94
2018-11-02T04:01:37.046Z,49.30
2018-11-02T04:04:05.704Z,49.45
2018-11-02T04:06:33.991Z,49.76
2018-11-02T04:09:02.471Z,49.25
2018-11-02T04:11:30.787Z,49.57
2018-11-02T04:13:59.227Z,49.48
2018-11-02T04:16:27.659Z,48.87
2018-11-02T04:18:56.022Z,48.94
2018-11-02T04:21:24.329Z,49.87
2018-11-02T04:23:52.641Z,50.69
2018-11-02T04:26:21.057Z,50.52
2018-11-02T04:28:49.371Z,51.50
2018-11-02T04:31:17.721Z,51.05
2018-11-02T04:33:46.040Z,49.76
2018-11-02T04:36:14.337Z,49.09
2018-11-02T04:38:42.633Z,49.16
2018-11-02T04:41:10.954Z,50.02
2018-11-02T04:43:39.282Z,49.46
2018-11-02T04:46:07.592Z,48.81
2018-11-02T04:48:35.873Z,49.90
2018-11-02T04:51:04.290Z,49.62
2018-11-02T04:53:32.641Z,50.93
2018-11-02T04:56:04.059Z,50.38
2018-11-02T04:58:32.422Z,49.87
2018-11-02T05:01:00.694Z,49.67
2018-11-02T05:03:29.065Z,49.49
2018-11-02T05:05:57.375Z,50.09
2018-11-02T05:08:25.730Z,49.95
2018-11-02T05:10:54.058Z,50.15
2018-11-02T05:13:22.337Z,50.97
2018-11-02T05:15:50.661Z,50.90
2018-11-02T05:18:18.948Z,50.32
2018-11-02T05:20:47.276Z,50.66
2018-11-02T05:23:15.639Z,49.62
2018-11-02T05:25:43.954Z,50.26
2018-11-02T05:28:12.277Z,49.28
2018-11-02T05:30:40.676Z,50.39
2018-11-02T05:33:09.155Z,49.87
2018-11-02T05:35:37.488Z,49.77
2018-11-02T05:38:05.792Z,50.52
2018-11-02T05:40:34.080Z,53.71
2018-11-02T05:43:02.415Z,51.87
2018-11-02T05:45:30.759Z,51.09
2018-11-02T05:47:59.294Z,50.16
2018-11-02T05:50:27.647Z,51.35
2018-11-02T05:52:55.917Z,50.02
2018-11-02T05:55:24.253Z,50.97
2018-11-02T05:57:52.607Z,52.41
2018-11-02T06:00:20.992Z,51.26
2018-11-02T06:02:49.310Z,50.58
2018-11-02T06:05:17.662Z,52.50
2018-11-02T06:07:46.134Z,51.30
2018-11-02T06:10:14.356Z,52.05
2018-11-02T06:12:42.873Z,51.67
2018-11-02T06:15:11.281Z,50.75
2018-11-02T06:17:39.629Z,52.03
2018-11-02T06:20:08.539Z,51.05
2018-11-02T06:22:36.889Z,52.61
2018-11-02T06:25:05.630Z,51.89
2018-11-02T06:27:34.066Z,51.93
2018-11-02T06:30:02.485Z,53.55
2018-11-02T06:32:30.868Z,52.64
2018-11-02T06:34:59.132Z,53.36
2018-11-02T06:37:27.585Z,52.08
2018-11-02T06:39:55.945Z,52.18
2018-11-02T06:42:24.438Z,51.85
2018-11-02T06:44:52.882Z,52.29
2018-11-02T06:47:21.114Z,50.78
2018-11-02T06:49:49.450Z,50.30
2018-11-02T06:52:17.804Z,52.68
2018-11-02T06:54:46.151Z,50.46
2018-11-02T06:57:14.506Z,50.44
2018-11-02T06:59:42.993Z,49.86
2018-11-02T07:02:11.180Z,49.27
2018-11-02T07:04:39.793Z,49.21
2018-11-02T07:07:08.133Z,49.89
2018-11-02T07:09:36.417Z,47.86
2018-11-02T07:12:05.268Z,48.68
2018-11-02T07:14:33.561Z,47.80
2018-11-02T07:17:01.961Z,47.45
2018-11-02T07:19:30.315Z,47.66
2018-11-02T07:21:58.927Z,47.62
2018-11-02T07:24:27.388Z,47.44
2018-11-02T07:26:55.931Z,47.62
2018-11-02T07:29:24.983Z,47.95
2018-11-02T07:31:55.245Z,48.18
2018-11-02T07:34:23.941Z,47.88
2018-11-02T07:36:52.760Z,47.82
2018-11-02T07:39:21.177Z,47.24
2018-11-02T07:41:50.555Z,47.65
2018-11-02T07:44:18.880Z,46.92
2018-11-02T07:46:47.258Z,48.42
2018-11-02T07:49:19.131Z,47.97
2018-11-02T07:51:47.505Z,47.53
2018-11-02T07:54:15.889Z,46.32
2018-11-02T07:56:44.344Z,45.85
2018-11-02T07:59:13.027Z,44.49
2018-11-02T08:01:42.247Z,43.70
2018-11-02T08:04:10.891Z,44.44
2018-11-02T08:06:39.283Z,43.66
2018-11-02T08:09:10.281Z,43.74
2018-11-02T08:11:38.804Z,44.33
2018-11-02T08:14:07.314Z,45.97
2018-11-02T08:16:35.817Z,46.22
2018-11-02T08:19:04.226Z,45.56
2018-11-02T08:21:32.499Z,44.96
2018-11-02T08:24:00.869Z,45.68
2018-11-02T08:26:29.266Z,45.06
2018-11-02T08:28:57.629Z,46.55
2018-11-02T08:31:26.114Z,45.62
2018-11-02T08:33:54.609Z,43.81
2018-11-02T08:36:22.957Z,45.52
2018-11-02T08:38:51.312Z,43.82
2018-11-02T08:41:19.713Z,42.70
2018-11-02T08:43:48.274Z,41.71
2018-11-02T08:46:16.787Z,41.81
2018-11-02T08:48:45.173Z,41.75
2018-11-02T08:51:13.481Z,41.56
2018-11-02T08:53:41.810Z,41.65
2018-11-02T08:56:10.221Z,42.43
2018-11-02T08:58:38.690Z,41.76
2018-11-02T09:01:06.914Z,41.85
2018-11-02T09:03:35.230Z,41.70
2018-11-02T09:06:03.560Z,41.55
2018-11-02T09:08:31.923Z,41.08
2018-11-02T09:11:00.284Z,40.07
2018-11-02T09:13:28.765Z,39.58
2018-11-02T09:15:57.113Z,39.02
2018-11-02T09:18:25.590Z,39.45
2018-11-02T09:20:54.136Z,37.91
2018-11-02T09:23:22.864Z,37.56
2018-11-02T09:25:51.232Z,37.37
2018-11-02T09:28:19.723Z,37.20
2018-11-02T09:30:48.346Z,37.68
2018-11-02T09:33:16.815Z,38.75
2018-11-02T09:35:45.173Z,39.13
2018-11-02T09:38:13.508Z,36.64
2018-11-02T09:40:41.802Z,36.68
2018-11-02T09:43:10.195Z,36.58
2018-11-02T09:45:38.517Z,37.27
2018-11-02T09:48:07.060Z,37.23
2018-11-02T09:50:35.417Z,35.52
2018-11-02T09:53:03.859Z,36.64
2018-11-02T09:55:32.188Z,36.38
2018-11-02T09:58:00.492Z,36.02
2018-11-02T10:00:28.855Z,37.14
2018-11-02T10:02:57.269Z,36.66
2018-11-02T10:05:25.634Z,37.66
2018-11-02T10:07:53.950Z,37.67
2018-11-02T10:10:22.301Z,36.70
2018-11-02T10:12:50.609Z,36.68
2018-11-02T10:15:18.941Z,37.21
2018-11-02T10:17:47.261Z,37.47
2018-11-02T10:20:15.619Z,38.19
2018-11-02T10:22:44.146Z,40.51
2018-11-02T10:25:12.613Z,38.96
2018-11-02T10:27:42.221Z,38.53
2018-11-02T10:30:12.250Z,38.09
2018-11-02T10:32:41.654Z,37.36
2018-11-02T10:35:10.156Z,38.68
2018-11-02T10:37:38.866Z,40.95
2018-11-02T10:40:14.390Z,39.98
2018-11-02T10:42:43.922Z,39.73
2018-11-02T10:45:12.290Z,42.44
2018-11-02T10:47:41.105Z,43.26
2018-11-02T10:50:09.499Z,42.14
2018-11-02T10:52:37.878Z,42.09
2018-11-02T10:55:06.284Z,43.33
2018-11-02T10:57:34.593Z,42.72
2018-11-02T11:00:03.020Z,42.99
2018-11-02T11:02:37.458Z,44.57
2018-11-02T11:05:07.279Z,41.72
2018-11-02T11:07:35.603Z,40.72
2018-11-02T11:10:04.573Z,40.80
2018-11-02T11:12:33.080Z,40.26
2018-11-02T11:15:01.378Z,41.00
2018-11-02T11:17:29.728Z,40.57
2018-11-02T11:19:58.178Z,43.32
2018-11-02T11:22:26.507Z,40.96
2018-11-02T11:24:54.870Z,39.30
2018-11-02T11:27:23.360Z,39.34
2018-11-02T11:29:51.770Z,39.24
2018-11-02T11:32:20.449Z,39.09
2018-11-02T11:34:50.771Z,37.68
2018-11-02T11:37:19.062Z,37.25
2018-11-02T11:39:47.511Z,37.96
2018-11-02T11:42:15.835Z,37.75
2018-11-02T11:44:44.281Z,38.50
2018-11-02T11:47:12.629Z,39.84
2018-11-02T11:49:41.006Z,38.16
2018-11-02T11:52:09.299Z,37.73
2018-11-02T11:54:37.921Z,36.64
2018-11-02T11:57:06.911Z,36.20
2018-11-02T11:59:35.243Z,36.17
2018-11-02T12:02:03.605Z,36.89
2018-11-02T12:04:32.021Z,36.33
2018-11-02T12:07:00.273Z,36.81
2018-11-02T12:09:28.627Z,36.74
2018-11-02T12:11:56.936Z,37.66
2018-11-02T12:14:25.282Z,37.11
2018-11-02T12:16:53.773Z,37.44
2018-11-02T12:19:22.083Z,37.88
2018-11-02T12:21:50.745Z,38.79
2018-11-02T12:24:19.193Z,37.98
2018-11-02T12:26:47.742Z,37.69
2018-11-02T12:29:16.081Z,38.01
2018-11-02T12:31:44.430Z,36.97
2018-11-02T12:34:13.605Z,36.62
2018-11-02T12:36:41.925Z,37.13
2018-11-02T12:39:10.406Z,36.77
2018-11-02T12:41:39.083Z,37.44
2018-11-02T12:44:27.627Z,36.91
2018-11-02T12:46:57.503Z,37.34
2018-11-02T12:49:26.257Z,35.86
2018-11-02T12:51:54.225Z,37.72
2018-11-02T12:54:22.663Z,37.31
2018-11-02T12:56:50.963Z,37.59
2018-11-02T12:59:19.257Z,39.03
2018-11-02T13:01:47.594Z,39.00
2018-11-02T13:04:15.928Z,38.50
2018-11-02T13:06:44.563Z,40.58
2018-11-02T13:09:12.902Z,41.51
2018-11-02T13:11:41.247Z,40.79
2018-11-02T13:14:09.684Z,41.24
2018-11-02T13:16:38.062Z,41.01
2018-11-02T13:19:06.680Z,41.73
2018-11-02T13:21:35.022Z,43.89
2018-11-02T13:24:03.333Z,42.67
2018-11-02T13:26:31.690Z,42.26
2018-11-02T13:29:00.012Z,43.18
2018-11-02T13:31:28.523Z,43.32
2018-11-02T13:33:56.669Z,44.25
2018-11-02T13:36:25.047Z,40.82
2018-11-02T13:38:53.354Z,42.46
2018-11-02T13:41:21.686Z,41.36
2018-11-02T13:43:50.147Z,40.71
2018-11-02T13:46:18.324Z,43.36
2018-11-02T13:48:46.794Z,41.49
2018-11-02T13:51:15.208Z,40.31
2018-11-02T13:53:43.557Z,40.35
2018-11-02T13:56:11.898Z,40.52
2018-11-02T13:58:40.214Z,40.23
2018-11-02T14:01:08.564Z,41.41
2018-11-02T14:03:36.979Z,42.17
2018-11-02T14:06:05.372Z,41.14
2018-11-02T14:08:33.725Z,40.07
2018-11-02T14:11:02.041Z,40.01
2018-11-02T14:13:30.388Z,40.34
2018-11-02T14:15:58.717Z,40.15
2018-11-02T14:18:27.068Z,40.04
2018-11-02T14:20:55.385Z,39.49
2018-11-02T14:23:23.828Z,40.70
2018-11-02T14:25:52.389Z,40.72
2018-11-02T14:28:20.740Z,39.99
2018-11-02T14:30:49.172Z,40.63
2018-11-02T14:33:17.481Z,40.43
2018-11-02T14:35:45.803Z,40.71
2018-11-02T14:38:14.137Z,40.20
2018-11-02T14:40:42.498Z,40.72
2018-11-02T14:43:10.858Z,40.46
2018-11-02T14:45:39.225Z,39.68
2018-11-02T14:48:07.580Z,39.89
2018-11-02T14:50:35.885Z,39.86
2018-11-02T14:53:04.848Z,40.74
2018-11-02T14:55:33.216Z,40.71
2018-11-02T14:58:01.594Z,40.63
2018-11-02T15:00:29.935Z,40.31
2018-11-02T15:02:58.308Z,39.52
2018-11-02T15:05:26.649Z,40.62
2018-11-02T15:07:54.969Z,41.08
2018-11-02T15:10:24.032Z,41.10
2018-11-02T15:12:52.455Z,40.37
2018-11-02T15:15:20.819Z,40.19
2018-11-02T15:17:49.168Z,40.01
2018-11-02T15:20:17.497Z,39.34
2018-11-02T15:22:45.818Z,40.69
2018-11-02T15:25:14.204Z,40.29
2018-11-02T15:27:42.559Z,41.69
2018-11-02T15:30:12.706Z,42.46
2018-11-02T15:32:41.587Z,43.70
2018-11-02T15:35:10.666Z,44.67
2018-11-02T15:37:38.996Z,43.44
2018-11-02T15:40:09.822Z,42.20
2018-11-02T15:42:38.175Z,42.02
2018-11-02T15:45:08.880Z,44.20
2018-11-02T15:47:37.304Z,43.94
2018-11-02T15:50:06.565Z,44.80
2018-11-02T15:52:35.053Z,43.75
2018-11-02T15:55:03.352Z,43.61
2018-11-02T15:57:31.801Z,43.56
2018-11-02T16:00:00.132Z,44.20
2018-11-02T16:02:28.478Z,44.10
2018-11-02T16:04:56.827Z,43.42
2018-11-02T16:07:25.189Z,42.89
2018-11-02T16:09:53.502Z,43.51
2018-11-02T16:12:21.819Z,43.03
2018-11-02T16:14:50.188Z,43.50
2018-11-02T16:17:18.498Z,43.84
2018-11-02T16:19:46.865Z,44.26
2018-11-02T16:22:15.140Z,44.38
2018-11-02T16:24:43.464Z,44.20
2018-11-02T16:27:11.789Z,44.40
2018-11-02T16:29:40.843Z,44.54
2018-11-02T16:32:09.274Z,44.70
2018-11-02T16:34:37.557Z,43.96
2018-11-02T16:37:06.118Z,44.83
2018-11-02T16:39:34.485Z,44.87
2018-11-02T16:42:02.843Z,44.23
2018-11-02T16:44:31.212Z,44.49
2018-11-02T16:46:59.534Z,44.75
2018-11-02T16:49:27.897Z,44.92
2018-11-02T16:51:56.473Z,44.89
2018-11-02T16:54:24.927Z,45.41
2018-11-02T16:56:53.237Z,44.98
2018-11-02T16:59:21.636Z,45.46
2018-11-02T17:01:49.981Z,45.36
2018-11-02T17:04:18.288Z,45.40
2018-11-02T17:06:46.618Z,44.95
2018-11-02T17:09:15.088Z,44.27
2018-11-02T17:11:43.549Z,45.07
2018-11-02T17:14:11.799Z,45.24
2018-11-02T17:16:40.139Z,44.96
2018-11-02T17:19:08.494Z,45.35
2018-11-02T17:21:36.883Z,45.04
2018-11-02T17:24:05.741Z,45.42
2018-11-02T17:26:34.059Z,44.93
2018-11-02T17:29:02.386Z,44.83
2018-11-02T17:31:30.717Z,45.09
2018-11-02T17:33:59.014Z,45.59
2018-11-02T17:36:27.404Z,45.41
2018-11-02T17:38:55.677Z,45.54
2018-11-02T17:41:23.988Z,45.77
2018-11-02T17:43:53.019Z,45.48
2018-11-02T17:46:21.496Z,45.79
2018-11-02T17:48:49.863Z,45.48
2018-11-02T17:51:18.201Z,45.14
2018-11-02T17:53:46.555Z,45.56
2018-11-02T17:56:14.966Z,45.86
2018-11-02T17:58:43.326Z,45.88
2018-11-02T18:01:11.651Z,46.34
2018-11-02T18:03:39.952Z,46.18
2018-11-02T18:06:08.340Z,46.06
2018-11-02T18:08:36.926Z,46.62
2018-11-02T18:11:05.481Z,47.26
2018-11-02T18:13:33.806Z,46.34
2018-11-02T18:16:02.150Z,46.32
2018-11-02T18:18:30.619Z,46.12
2018-11-02T18:20:58.957Z,45.49
2018-11-02T18:23:27.308Z,46.20
2018-11-02T18:25:55.584Z,46.35
2018-11-02T18:28:23.931Z,46.57
2018-11-02T18:30:52.248Z,47.28
2018-11-02T18:33:20.549Z,46.04
2018-11-02T18:35:48.959Z,45.97
2018-11-02T18:38:17.281Z,46.37
2018-11-02T18:40:45.619Z,46.23
2018-11-02T18:43:14.019Z,46.47
2018-11-02T18:45:42.364Z,46.08
2018-11-02T18:48:10.933Z,46.17
2018-11-02T18:50:39.175Z,46.13
2018-11-02T18:53:07.449Z,46.36
2018-11-02T18:55:35.753Z,46.41
2018-11-02T18:58:04.144Z,45.83
2018-11-02T19:00:32.465Z,45.69
2018-11-02T19:03:00.820Z,45.54
2018-11-02T19:05:29.163Z,45.66
2018-11-02T19:07:57.454Z,45.90
2018-11-02T19:10:25.801Z,45.73
2018-11-02T19:12:54.212Z,44.97
2018-11-02T19:15:22.537Z,45.74
2018-11-02T19:17:50.890Z,46.65
2018-11-02T19:20:19.336Z,45.85
2018-11-02T19:22:47.604Z,47.61
2018-11-02T19:25:16.664Z,48.05
2018-11-02T19:27:45.555Z,47.66
2018-11-02T19:30:14.759Z,47.09
2018-11-02T19:32:43.235Z,46.65
2018-11-02T19:35:12.786Z,46.22
2018-11-02T19:37:41.006Z,46.85
2018-11-02T19:40:11.608Z,46.52
2018-11-02T19:42:39.937Z,47.70
2018-11-02T19:45:09.110Z,47.10
2018-11-02T19:47:42.816Z,46.40
2018-11-02T19:50:13.142Z,46.61
2018-11-02T19:52:41.700Z,46.88
2018-11-02T19:55:11.224Z,46.50
2018-11-02T19:57:39.841Z,46.61
2018-11-02T20:00:11.110Z,46.29
2018-11-02T20:02:39.985Z,46.13
2018-11-02T20:05:10.037Z,47.11
2018-11-02T20:07:38.877Z,47.20
2018-11-02T20:10:08.075Z,47.54
2018-11-02T20:12:36.374Z,46.73
2018-11-02T20:15:12.404Z,48.23
2018-11-02T20:17:41.032Z,47.19
2018-11-02T20:20:11.196Z,47.41
2018-11-02T20:22:39.605Z,47.93
2018-11-02T20:25:09.552Z,48.02
2018-11-02T20:27:37.945Z,48.44
2018-11-02T20:30:08.297Z,47.06
2018-11-02T20:32:37.278Z,47.04
2018-11-02T20:35:06.276Z,47.75
2018-11-02T20:37:34.614Z,48.74
2018-11-02T20:40:02.950Z,48.02
2018-11-02T20:42:31.285Z,48.64
2018-11-02T20:44:59.646Z,49.33
2018-11-02T20:47:31.194Z,49.09
2018-11-02T20:49:59.730Z,49.59
2018-11-02T20:52:28.550Z,49.04
2018-11-02T20:54:56.865Z,49.74
2018-11-02T20:57:25.221Z,50.46
2018-11-02T20:59:53.554Z,49.83
2018-11-02T21:02:21.908Z,50.81
2018-11-02T21:04:50.283Z,52.16
2018-11-02T21:07:18.794Z,50.95
2018-11-02T21:09:47.181Z,50.06
2018-11-02T21:12:15.389Z,50.31
2018-11-02T21:14:43.753Z,51.17
2018-11-02T21:17:12.159Z,50.89
2018-11-02T21:19:40.467Z,50.89
2018-11-02T21:22:11.048Z,50.78
2018-11-02T21:24:39.277Z,51.46
2018-11-02T21:27:08.061Z,51.14
2018-11-02T21:29:36.402Z,51.87
2018-11-02T21:32:04.756Z,51.79
2018-11-02T21:34:33.069Z,52.12
2018-11-02T21:37:01.648Z,51.94
2018-11-02T21:39:30.076Z,52.41
2018-11-02T21:41:58.406Z,52.49
2018-11-02T21:44:26.738Z,51.75
2018-11-02T21:46:55.324Z,53.33
2018-11-02T21:49:23.678Z,53.37
2018-11-02T21:51:52.018Z,52.78
2018-11-02T21:54:20.473Z,52.07
2018-11-02T21:56:48.906Z,52.22
2018-11-02T21:59:17.292Z,52.18
2018-11-02T22:01:45.628Z,52.23
2018-11-02T22:04:13.970Z,50.98
2018-11-02T22:06:42.311Z,51.14
2018-11-02T22:09:11.204Z,52.11
2018-11-02T22:11:40.114Z,53.22
2018-11-02T22:14:08.737Z,52.86
2018-11-02T22:16:37.121Z,52.71
2018-11-02T22:19:05.704Z,52.21
2018-11-02T22:21:33.955Z,51.44
2018-11-02T22:24:02.314Z,51.94
2018-11-02T22:26:30.815Z,52.20
2018-11-02T22:28:59.219Z,52.44
2018-11-02T22:31:27.530Z,52.52
2018-11-02T22:33:55.987Z,53.33
2018-11-02T22:36:24.293Z,52.94
2018-11-02T22:38:52.743Z,53.21
2018-11-02T22:41:21.039Z,52.79
2018-11-02T22:43:49.381Z,53.03
2018-11-02T22:46:17.743Z,51.75
2018-11-02T22:48:46.188Z,52.08
2018-11-02T22:51:14.540Z,52.52
2018-11-02T22:53:42.904Z,51.62
2018-11-02T22:56:11.290Z,52.08
2018-11-02T22:58:39.645Z,52.33
2018-11-02T23:01:13.412Z,51.92
2018-11-02T23:03:41.990Z,52.12
2018-11-02T23:06:10.341Z,52.07
2018-11-02T23:08:38.685Z,50.76
2018-11-02T23:11:07.013Z,51.35
2018-11-02T23:13:35.356Z,52.24
2018-11-02T23:16:03.732Z,52.19
2018-11-02T23:18:32.119Z,51.93
2018-11-02T23:21:00.426Z,51.20
2018-11-02T23:23:29.497Z,51.60
2018-11-02T23:25:57.826Z,51.57
2018-11-02T23:28:26.373Z,51.02
2018-11-02T23:30:54.750Z,51.29
2018-11-02T23:33:23.160Z,51.65
2018-11-02T23:35:51.528Z,51.45
2018-11-02T23:38:19.924Z,51.42
2018-11-02T23:40:48.340Z,50.58
2018-11-02T23:43:16.601Z,51.41
2018-11-02T23:45:44.988Z,50.95
2018-11-02T23:48:17.963Z,50.84
2018-11-02T23:50:47.560Z,50.10
2018-11-02T23:53:15.874Z,51.20
2018-11-02T23:55:44.521Z,50.32
2018-11-02T23:58:12.913Z,50.46
